首页
METAR-TAF:

METAR-TAF

机场 :

Haines, 阿拉斯加州, 美国

纬度: 59-15N, 经度: 135-31W, 海拔: 5米

当前天气观测

该预报发布于59分钟前的13:52 UTC
风速5节,风向北转西北
温度 0°C
湿度 86%
气压 1004 hPa
能見度: 1.2公里
小雪, 轻雾

METAR: PAHN 231352Z AUTO 33005KT 3/4SM -SN BR VV012 00/M02 A2966 RMK SLP047 P0000 T00001022 TSNO VIA AUTODIAL

时间: 05:51 (14:51 UTC)

预报

该预报发布于3小时和7分钟前的11:44 UTC
预报有效从23日的 12点(UTC)到 24日的 12点(UTC)
风速5节,风向多变
能見度: 2.4公里
阴天层高于1500英尺
小阵雪
从 23日的 1700点(UTC)
风速9节,风向西北
能見度: 2.4公里
阴天层高于1500英尺
小阵雪
从 23日的 2300点(UTC)
风速9节,风向西北
能見度: 1.6公里
阴天层高于1500英尺
小阵雪
从 24日的 0200点(UTC)
风速9节,风向西北
能見度: 1.6公里
阴天层高于1500英尺
小阵雪
从 24日的 0600点(UTC)
风速9节,风向西北
能見度: 1.6公里
阴天层高于2500英尺
小阵雪

TAF: PAHN 231144Z 2312/2412 VRB05KT 1 1/2SM -SHSN OVC015 FM231700 31009KT 1 1/2SM -SHSN OVC015 FM232300 31009KT 2SM -SHSN OVC015 FM240200 31009KT 3SM -SHSN OVC015 FM240600 31009KT 5SM -SHSN OVC025 AMD LTD TO CLD VIS AND WIND

超过4000个机场的气象观测和天气预报(METAR&TAF报告)。

可查询的气象台以黄色和红色小点在地图上表示。

将鼠标移到小点上方,可查看气象台名称。

然后点击查看天气观测和预报。

如需切换地图:点击带黑十字的绿色按钮放大地图;点击带横线的绿色按钮缩小地图;或者点击绿色箭头查看邻近地区的地图。


METAR-TAF: